createdAt,value
2023-05-04T00:02:06.304Z,73.26
2023-05-04T00:05:08.990Z,73.61
2023-05-04T00:08:11.685Z,73.60
2023-05-04T00:11:14.396Z,72.37
2023-05-04T00:14:16.960Z,73.68
2023-05-04T00:17:19.724Z,73.61
2023-05-04T00:20:22.496Z,72.68
2023-05-04T00:23:24.890Z,72.76
2023-05-04T00:26:27.314Z,73.38
2023-05-04T00:29:30.498Z,73.18
2023-05-04T00:32:33.142Z,73.13
2023-05-04T00:35:35.657Z,73.84
2023-05-04T00:38:52.343Z,73.34
2023-05-04T00:41:54.806Z,73.71
2023-05-04T00:44:57.209Z,73.29
2023-05-04T00:47:59.701Z,72.85
2023-05-04T00:51:04.125Z,73.05
2023-05-04T00:54:06.701Z,72.82
2023-05-04T00:57:09.216Z,73.30
2023-05-04T01:00:13.348Z,73.60
2023-05-04T01:03:18.928Z,73.13
2023-05-04T01:06:40.799Z,72.73
2023-05-04T01:10:25.419Z,73.16
2023-05-04T01:13:28.346Z,73.16
2023-05-04T01:16:30.853Z,73.41
2023-05-04T01:19:34.203Z,73.33
2023-05-04T01:22:39.039Z,73.54
2023-05-04T01:25:52.065Z,74.03
2023-05-04T01:29:24.294Z,74.31
2023-05-04T01:32:31.903Z,73.40
2023-05-04T01:35:34.639Z,74.26
2023-05-04T01:38:37.071Z,74.29
2023-05-04T01:41:39.488Z,73.33
2023-05-04T01:44:41.847Z,73.90
2023-05-04T01:47:44.853Z,73.76
2023-05-04T01:50:48.032Z,73.52
2023-05-04T01:53:50.625Z,73.38
2023-05-04T01:56:53.133Z,73.36
2023-05-04T01:59:55.754Z,73.66
2023-05-04T02:02:58.325Z,73.31
2023-05-04T02:06:00.750Z,73.24
2023-05-04T02:09:03.626Z,73.51
2023-05-04T02:12:06.041Z,73.02
2023-05-04T02:15:08.767Z,72.51
2023-05-04T02:18:11.259Z,72.24
2023-05-04T02:21:14.004Z,71.93
2023-05-04T02:24:19.629Z,71.90
2023-05-04T02:27:22.042Z,71.96
2023-05-04T02:30:24.996Z,72.04
2023-05-04T02:33:27.564Z,70.97
2023-05-04T02:36:30.030Z,71.42
2023-05-04T02:39:32.428Z,71.34
2023-05-04T02:42:35.236Z,70.83
2023-05-04T02:45:37.827Z,70.89
2023-05-04T02:48:40.263Z,70.89
2023-05-04T02:51:43.284Z,71.44
2023-05-04T02:54:46.195Z,70.39
2023-05-04T02:57:48.689Z,70.93
2023-05-04T03:00:55.827Z,70.68
2023-05-04T03:03:58.260Z,70.69
2023-05-04T03:07:00.889Z,70.42
2023-05-04T03:10:03.629Z,70.22
2023-05-04T03:13:06.852Z,70.17
2023-05-04T03:16:09.944Z,70.25
2023-05-04T03:19:12.430Z,70.42
2023-05-04T03:22:15.047Z,70.20
2023-05-04T03:25:19.274Z,70.21
2023-05-04T03:28:21.712Z,70.80
2023-05-04T03:31:24.462Z,70.46
2023-05-04T03:34:28.511Z,70.03
2023-05-04T03:37:36.381Z,70.02
2023-05-04T03:40:40.039Z,70.79
2023-05-04T03:43:42.571Z,69.72
2023-05-04T03:46:45.961Z,70.67
2023-05-04T03:49:48.487Z,70.01
2023-05-04T03:52:51.776Z,70.18
2023-05-04T03:55:56.894Z,70.14
2023-05-04T03:58:59.975Z,69.43
2023-05-04T04:02:10.132Z,69.52
2023-05-04T04:05:12.621Z,69.58
2023-05-04T04:08:15.333Z,69.80
2023-05-04T04:11:17.752Z,69.20
2023-05-04T04:14:20.330Z,69.88
2023-05-04T04:17:22.754Z,69.48
2023-05-04T04:20:29.088Z,69.38
2023-05-04T04:23:31.584Z,69.25
2023-05-04T04:26:34.208Z,69.16
2023-05-04T04:29:36.846Z,68.66
2023-05-04T04:32:39.598Z,67.71
2023-05-04T04:35:42.159Z,68.59
2023-05-04T04:38:44.811Z,68.30
2023-05-04T04:41:47.553Z,68.23
2023-05-04T04:44:49.960Z,67.72
2023-05-04T04:47:52.504Z,67.52
2023-05-04T04:50:56.020Z,68.02
2023-05-04T04:53:58.453Z,68.34
2023-05-04T04:57:00.876Z,67.70
2023-05-04T05:00:07.907Z,67.56
2023-05-04T05:03:11.090Z,67.39
2023-05-04T05:06:14.148Z,67.70
2023-05-04T05:09:16.871Z,66.13
2023-05-04T05:12:19.371Z,66.41
2023-05-04T05:15:21.758Z,66.35
2023-05-04T05:18:24.931Z,65.29
2023-05-04T05:21:27.394Z,65.78
2023-05-04T05:24:29.760Z,64.01
2023-05-04T05:27:33.514Z,64.55
2023-05-04T05:30:38.085Z,63.69
2023-05-04T05:33:40.631Z,63.35
2023-05-04T05:36:43.546Z,62.46
2023-05-04T05:39:45.942Z,60.29
2023-05-04T05:42:49.014Z,57.33
2023-05-04T05:45:51.457Z,55.62
2023-05-04T05:48:54.042Z,54.30
2023-05-04T05:51:57.140Z,51.60
2023-05-04T05:55:02.262Z,50.33
2023-05-04T05:58:08.703Z,50.13
2023-05-04T06:01:11.396Z,51.83
2023-05-04T06:04:14.038Z,54.94
2023-05-04T06:07:16.598Z,56.55
2023-05-04T06:10:18.985Z,56.23
2023-05-04T06:13:21.582Z,56.31
2023-05-04T06:16:24.183Z,56.14
2023-05-04T06:19:28.066Z,53.58
2023-05-04T06:22:32.002Z,49.35
2023-05-04T06:25:34.474Z,47.21
2023-05-04T06:28:36.943Z,46.41
2023-05-04T06:31:39.462Z,49.31
2023-05-04T06:34:41.903Z,51.19
2023-05-04T06:37:44.323Z,53.23
2023-05-04T06:40:47.760Z,54.21
2023-05-04T06:43:50.215Z,53.50
2023-05-04T06:46:52.663Z,54.02
2023-05-04T06:49:55.136Z,54.14
2023-05-04T06:53:09.037Z,54.04
2023-05-04T06:56:11.695Z,54.13
2023-05-04T06:59:14.206Z,55.03
2023-05-04T07:02:17.160Z,54.83
2023-05-04T07:05:22.981Z,54.17
2023-05-04T07:08:25.565Z,54.42
2023-05-04T07:11:28.710Z,54.55
2023-05-04T07:14:31.187Z,55.69
2023-05-04T07:17:33.589Z,55.60
2023-05-04T07:20:37.182Z,56.08
2023-05-04T07:23:39.730Z,56.31
2023-05-04T07:26:42.087Z,56.08
2023-05-04T07:29:44.521Z,55.42
2023-05-04T07:32:46.970Z,55.21
2023-05-04T07:35:49.398Z,55.29
2023-05-04T07:38:52.418Z,55.53
2023-05-04T07:41:55.132Z,55.67
2023-05-04T07:44:57.932Z,54.99
2023-05-04T07:48:00.644Z,55.75
2023-05-04T07:51:03.569Z,56.16
2023-05-04T07:54:06.035Z,57.05
2023-05-04T07:57:08.445Z,56.27
2023-05-04T08:00:11.610Z,56.67
2023-05-04T08:03:16.796Z,56.98
2023-05-04T08:06:19.353Z,56.08
2023-05-04T08:09:21.735Z,55.77
2023-05-04T08:12:26.906Z,55.99
2023-05-04T08:15:29.369Z,56.61
2023-05-04T08:18:31.766Z,56.84
2023-05-04T08:21:34.213Z,55.37
2023-05-04T08:24:36.793Z,56.16
2023-05-04T08:27:39.473Z,55.80
2023-05-04T08:30:42.658Z,55.20
2023-05-04T08:33:48.580Z,55.96
2023-05-04T08:36:52.703Z,55.51
2023-05-04T08:39:55.111Z,56.01
2023-05-04T08:42:57.631Z,56.45
2023-05-04T08:46:00.184Z,56.96
2023-05-04T08:49:02.670Z,62.32
2023-05-04T08:52:07.937Z,61.98
2023-05-04T08:55:12.071Z,63.15
2023-05-04T08:58:17.583Z,62.74
2023-05-04T09:01:22.227Z,66.05
2023-05-04T09:04:29.253Z,66.19
2023-05-04T09:07:32.728Z,63.92
2023-05-04T09:10:35.587Z,64.32
2023-05-04T09:13:38.767Z,65.60
2023-05-04T09:16:41.727Z,65.57
2023-05-04T09:19:44.987Z,65.27
2023-05-04T09:22:48.206Z,65.31
2023-05-04T09:25:55.291Z,63.82
2023-05-04T09:29:09.886Z,61.83
2023-05-04T09:32:15.278Z,61.39
2023-05-04T09:35:32.029Z,60.47
2023-05-04T09:38:35.544Z,59.54
2023-05-04T09:41:38.540Z,58.63
2023-05-04T09:44:40.964Z,57.93
2023-05-04T09:47:44.245Z,58.32
2023-05-04T09:50:58.407Z,56.60
2023-05-04T09:54:06.362Z,52.09
2023-05-04T09:57:11.838Z,51.53
2023-05-04T10:00:17.281Z,50.68
2023-05-04T10:03:21.469Z,47.59
2023-05-04T10:06:24.770Z,49.34
2023-05-04T10:09:29.952Z,48.97
2023-05-04T10:12:32.480Z,46.19
2023-05-04T10:15:36.471Z,40.28
2023-05-04T10:19:03.908Z,38.50
2023-05-04T10:22:25.042Z,35.70
2023-05-04T10:25:33.186Z,34.33
2023-05-04T10:29:06.870Z,32.80
2023-05-04T10:32:27.768Z,31.90
2023-05-04T10:35:30.280Z,31.75
2023-05-04T10:38:37.283Z,31.36
2023-05-04T10:41:39.683Z,31.79
2023-05-04T10:44:53.350Z,31.04
2023-05-04T10:47:58.291Z,32.31
2023-05-04T10:51:05.551Z,30.57
2023-05-04T10:54:17.770Z,31.70
2023-05-04T10:57:20.152Z,30.67
2023-05-04T11:00:35.328Z,30.03
2023-05-04T11:03:40.991Z,29.87
2023-05-04T11:06:44.055Z,30.15
2023-05-04T11:09:46.503Z,28.71
2023-05-04T11:12:49.092Z,31.25
2023-05-04T11:15:52.212Z,29.62
2023-05-04T11:18:55.405Z,31.36
2023-05-04T11:21:58.517Z,30.87
2023-05-04T11:25:00.902Z,30.31
2023-05-04T11:28:03.942Z,28.94
2023-05-04T11:31:20.039Z,29.86
2023-05-04T11:34:22.495Z,31.23
2023-05-04T11:37:25.003Z,28.67
2023-05-04T11:40:29.080Z,29.34
2023-05-04T11:43:33.526Z,29.96
2023-05-04T11:46:36.419Z,28.33
2023-05-04T11:49:39.659Z,29.00
2023-05-04T11:52:42.264Z,30.12
2023-05-04T11:55:44.641Z,29.37
2023-05-04T11:58:47.024Z,27.33
2023-05-04T12:01:49.683Z,29.62
2023-05-04T12:04:52.720Z,30.37
2023-05-04T12:07:55.154Z,31.40
2023-05-04T12:11:16.514Z,27.86
2023-05-04T12:14:19.381Z,29.68
2023-05-04T12:17:22.043Z,28.20
2023-05-04T12:20:28.309Z,28.38
2023-05-04T12:23:30.833Z,28.86
2023-05-04T12:26:33.411Z,27.99
2023-05-04T12:29:35.978Z,28.05
2023-05-04T12:32:38.693Z,28.35
2023-05-04T12:35:41.126Z,31.00
2023-05-04T12:38:43.548Z,31.35
2023-05-04T12:41:45.947Z,28.67
2023-05-04T12:44:48.357Z,28.56
2023-05-04T12:47:50.836Z,29.75
2023-05-04T12:50:54.589Z,29.48
2023-05-04T12:53:58.181Z,28.87
2023-05-04T12:57:02.338Z,27.33
2023-05-04T13:00:08.581Z,28.49
2023-05-04T13:03:13.178Z,30.69
2023-05-04T13:06:16.009Z,31.23
2023-05-04T13:09:20.170Z,30.43
2023-05-04T13:12:22.901Z,30.29
2023-05-04T13:15:25.403Z,29.58
2023-05-04T13:18:28.085Z,30.93
2023-05-04T13:21:30.525Z,29.85
2023-05-04T13:24:33.036Z,29.39
2023-05-04T13:27:35.519Z,30.45
2023-05-04T13:30:43.691Z,29.54
2023-05-04T13:33:46.872Z,29.51
2023-05-04T13:36:49.266Z,30.36
2023-05-04T13:39:51.718Z,30.79
2023-05-04T13:42:54.072Z,30.64
2023-05-04T13:45:57.376Z,31.59
2023-05-04T13:48:59.824Z,31.70
2023-05-04T13:52:02.796Z,33.24
2023-05-04T13:55:06.072Z,34.77
2023-05-04T13:58:08.629Z,33.77
2023-05-04T14:01:13.373Z,35.04
2023-05-04T14:04:16.206Z,36.17
2023-05-04T14:07:18.790Z,37.69
2023-05-04T14:10:22.255Z,38.49
2023-05-04T14:13:24.785Z,38.59
2023-05-04T14:16:27.716Z,36.79
2023-05-04T14:19:30.184Z,36.88
2023-05-04T14:22:32.655Z,35.61
2023-05-04T14:25:35.094Z,35.64
2023-05-04T14:28:38.207Z,33.66
2023-05-04T14:31:40.880Z,35.78
2023-05-04T14:34:43.342Z,32.97
2023-05-04T14:37:46.714Z,34.67
2023-05-04T14:40:49.843Z,33.72
2023-05-04T14:43:52.519Z,34.55
2023-05-04T14:46:55.614Z,35.21
2023-05-04T14:49:58.062Z,34.03
2023-05-04T14:53:00.920Z,35.97
2023-05-04T14:56:03.988Z,37.58
2023-05-04T14:59:06.790Z,36.12
2023-05-04T15:02:09.372Z,36.38
2023-05-04T15:05:12.780Z,36.29
2023-05-04T15:08:15.389Z,37.54
2023-05-04T15:11:19.390Z,38.01
2023-05-04T15:14:21.984Z,38.97
2023-05-04T15:17:24.386Z,39.68
2023-05-04T15:20:29.206Z,39.31
2023-05-04T15:23:31.745Z,39.86
2023-05-04T15:26:34.697Z,38.69
2023-05-04T15:29:37.155Z,39.80
2023-05-04T15:32:39.572Z,39.59
2023-05-04T15:35:41.978Z,40.31
2023-05-04T15:38:44.350Z,40.47
2023-05-04T15:41:46.930Z,40.03
2023-05-04T15:44:49.681Z,41.67
2023-05-04T15:47:54.195Z,41.32
2023-05-04T15:50:58.954Z,41.16
2023-05-04T15:54:01.901Z,42.66
2023-05-04T15:57:04.427Z,42.31
2023-05-04T16:00:09.132Z,42.17
2023-05-04T16:03:15.146Z,42.67
2023-05-04T16:06:17.999Z,42.74
2023-05-04T16:09:20.804Z,43.63
2023-05-04T16:12:23.308Z,43.74
2023-05-04T16:15:26.056Z,43.99
2023-05-04T16:18:28.466Z,43.74
2023-05-04T16:21:31.394Z,43.76
2023-05-04T16:24:34.454Z,43.62
2023-05-04T16:27:36.864Z,43.93
2023-05-04T16:30:43.193Z,44.13
2023-05-04T16:33:47.843Z,45.02
2023-05-04T16:36:50.476Z,45.07
2023-05-04T16:39:54.397Z,45.82
2023-05-04T16:42:56.834Z,45.93
2023-05-04T16:45:59.266Z,45.68
2023-05-04T16:49:01.822Z,45.45
2023-05-04T16:52:05.036Z,46.46
2023-05-04T16:55:11.282Z,45.64
2023-05-04T16:58:14.735Z,46.04
2023-05-04T17:01:18.402Z,45.81
2023-05-04T17:04:20.879Z,46.95
2023-05-04T17:07:23.366Z,46.95
2023-05-04T17:10:26.554Z,47.60
2023-05-04T17:13:28.934Z,48.01
2023-05-04T17:16:31.528Z,48.04
2023-05-04T17:19:34.077Z,48.23
2023-05-04T17:22:36.973Z,48.88
2023-05-04T17:25:39.453Z,49.03
2023-05-04T17:28:42.166Z,49.36
2023-05-04T17:31:44.580Z,49.26
2023-05-04T17:34:47.089Z,49.44
2023-05-04T17:37:49.451Z,49.52
2023-05-04T17:40:53.452Z,49.82
2023-05-04T17:43:56.835Z,50.75
2023-05-04T17:47:00.218Z,51.21
2023-05-04T17:50:03.111Z,50.64
2023-05-04T17:53:06.059Z,51.23
2023-05-04T17:56:08.445Z,50.95
2023-05-04T17:59:11.156Z,51.41
2023-05-04T18:02:14.065Z,51.47
2023-05-04T18:05:16.625Z,51.69
2023-05-04T18:08:19.011Z,52.12
2023-05-04T18:11:21.595Z,53.02
2023-05-04T18:14:24.178Z,52.22
2023-05-04T18:17:28.628Z,51.57
2023-05-04T18:20:31.594Z,52.42
2023-05-04T18:23:34.283Z,51.97
2023-05-04T18:26:36.740Z,52.01
2023-05-04T18:29:39.253Z,51.95
2023-05-04T18:32:41.753Z,51.43
2023-05-04T18:35:44.428Z,52.24
2023-05-04T18:38:51.728Z,52.62
2023-05-04T18:41:54.179Z,52.38
2023-05-04T18:44:56.886Z,52.49
2023-05-04T18:47:59.443Z,52.75
2023-05-04T18:51:02.722Z,52.36
2023-05-04T18:54:05.386Z,52.30
2023-05-04T18:57:10.226Z,52.71
2023-05-04T19:00:14.013Z,52.75
2023-05-04T19:03:17.720Z,52.49
2023-05-04T19:06:20.271Z,52.60
2023-05-04T19:09:23.059Z,52.23
2023-05-04T19:12:25.528Z,51.80
2023-05-04T19:15:28.301Z,51.96
2023-05-04T19:18:30.930Z,51.78
2023-05-04T19:21:33.973Z,53.21
2023-05-04T19:24:37.784Z,52.89
2023-05-04T19:27:40.341Z,52.81
2023-05-04T19:30:43.935Z,52.58
2023-05-04T19:33:48.726Z,52.28
2023-05-04T19:36:51.674Z,52.50
2023-05-04T19:39:54.766Z,51.79
2023-05-04T19:42:57.340Z,52.27
2023-05-04T19:46:02.232Z,53.23
2023-05-04T19:49:04.751Z,53.82
2023-05-04T19:52:07.284Z,54.40
2023-05-04T19:55:10.136Z,54.54
2023-05-04T19:58:12.687Z,55.26
2023-05-04T20:01:16.020Z,53.91
2023-05-04T20:04:18.953Z,55.13
2023-05-04T20:07:21.682Z,55.85
2023-05-04T20:10:27.166Z,57.27
2023-05-04T20:13:29.688Z,56.72
2023-05-04T20:16:32.446Z,55.77
2023-05-04T20:19:35.020Z,55.21
2023-05-04T20:22:38.435Z,54.88
2023-05-04T20:25:42.962Z,55.40
2023-05-04T20:28:45.454Z,56.44
2023-05-04T20:31:48.181Z,56.73
2023-05-04T20:34:50.628Z,57.67
2023-05-04T20:37:53.256Z,58.38
2023-05-04T20:40:57.870Z,57.89
2023-05-04T20:44:00.320Z,57.55
2023-05-04T20:47:02.771Z,58.08
2023-05-04T20:50:08.027Z,57.00
2023-05-04T20:53:11.559Z,57.98
2023-05-04T20:56:14.757Z,58.23
2023-05-04T20:59:17.326Z,59.52
2023-05-04T21:02:19.879Z,59.44
2023-05-04T21:05:22.337Z,58.67
2023-05-04T21:08:25.186Z,58.95
2023-05-04T21:11:28.014Z,58.96
2023-05-04T21:14:30.842Z,59.57
2023-05-04T21:17:33.264Z,59.49
2023-05-04T21:20:35.769Z,59.28
2023-05-04T21:23:38.240Z,59.85
2023-05-04T21:26:41.340Z,59.91
2023-05-04T21:29:43.973Z,59.77
2023-05-04T21:32:46.578Z,60.12
2023-05-04T21:35:49.014Z,60.54
2023-05-04T21:38:51.594Z,61.82
2023-05-04T21:41:54.227Z,60.92
2023-05-04T21:44:57.464Z,61.21
2023-05-04T21:48:02.410Z,61.50
2023-05-04T21:51:06.818Z,60.15
2023-05-04T21:54:09.208Z,60.33
2023-05-04T21:57:11.736Z,60.93
2023-05-04T22:00:18.178Z,61.31
2023-05-04T22:03:21.206Z,61.23
2023-05-04T22:06:24.588Z,61.44
2023-05-04T22:09:28.345Z,60.33
2023-05-04T22:12:31.336Z,60.37
2023-05-04T22:15:46.307Z,59.97
2023-05-04T22:18:52.190Z,59.71
2023-05-04T22:21:55.327Z,60.50
2023-05-04T22:24:57.812Z,59.98
2023-05-04T22:28:00.514Z,61.04
2023-05-04T22:31:02.960Z,60.92
2023-05-04T22:34:05.614Z,61.32
2023-05-04T22:37:08.059Z,61.08
2023-05-04T22:40:10.721Z,60.48
2023-05-04T22:43:13.122Z,59.75
2023-05-04T22:46:16.898Z,59.95
2023-05-04T22:49:19.857Z,60.52
2023-05-04T22:52:23.164Z,62.03
2023-05-04T22:55:25.622Z,63.11
2023-05-04T22:58:28.137Z,63.58
2023-05-04T23:01:30.910Z,63.42
2023-05-04T23:04:33.878Z,64.92
2023-05-04T23:07:36.294Z,65.93
2023-05-04T23:10:38.650Z,66.83
2023-05-04T23:13:41.775Z,68.47
2023-05-04T23:16:44.719Z,68.66
2023-05-04T23:19:47.509Z,69.01
2023-05-04T23:22:50.086Z,69.12
2023-05-04T23:25:53.047Z,69.16
2023-05-04T23:28:55.467Z,69.62
2023-05-04T23:31:58.253Z,70.41
2023-05-04T23:35:00.687Z,71.11
2023-05-04T23:38:04.003Z,71.11
2023-05-04T23:41:06.499Z,71.04
2023-05-04T23:44:09.064Z,71.71
2023-05-04T23:47:11.497Z,71.54
2023-05-04T23:50:14.118Z,71.73
2023-05-04T23:53:16.554Z,72.31
2023-05-04T23:56:19.227Z,71.21
2023-05-04T23:59:22.063Z,69.46
